Johnstown, PA (15909)

12:01 AM EDT on July 28, 2017 (GMT -0400)
Brownstown | | Change Station
Active Advisory: Flash Flood Watch Active Notice: Flash Flood Watch

Elev 1516 ft 40.34 °N, 78.94 °W | Updated 7 seconds ago

Rain
Rain
73.0 °F
Feels Like 73 °F
N
1.8
Wind Variable Wind from WNW
Gusts 2.3 mph

Today
High -- | Low -- °F
--% Chance of Precip.
Yesterday
High -- | Low -- °F
Precip. -- in
Pressure 29.91 in
Visibility 10.0 miles
Clouds Overcast 700 ft
Heat Index 73 °F
Dew Point 67 °F
Humidity 82%
Rainfall 0.01 in
Snow Depth Not available.
6:09 AM 8:33 PM
Waxing Crescent, 26% visible
METAR KJST 280354Z AUTO 22006KT 10SM OVC007 21/19 A2996 RMK AO2 SLP128 T02060194
Pressure 29.91 in
Visibility 10.0 miles
Clouds Overcast 700 ft
Heat Index 73 °F
Dew Point 67 °F
Humidity 82%
Rainfall 0.01 in
Snow Depth Not available.
6:09 AM 8:33 PM
Waxing Crescent, 26% visible
METAR KJST 280354Z AUTO 22006KT 10SM OVC007 21/19 A2996 RMK AO2 SLP128 T02060194

Get Your Daily Forecast Email!

Thanks for signing up!

Be on the lookout for a verification email in your inbox.

You'll start receiving severe weather alerts in your inbox..

×

10-Day Weather Forecast

Almanac

Astronomy

Jul. 28, 2017 Rise Set
Actual Time
Civil Twilight
Nautical Twilight
Astronomical Twilight
Moon
Length of Visible Light
Length of Day
Tomorrow will be .
, % of the Moon is Illuminated

Today's Extremes

State Highs State Lows

Community

WunderPhotos

Category 6

Welcome to Category 6. This is the collective home for Weather Underground's featured writeups by Dr. Jeff Masters (right), Bob Henson (left), Chris Burt, and other regular contributors.

Nearby

Air Quality

  Air Quality AQ Index Pollutant
Not available.

Snow Depth

Station Depth Elevation

Earthquake Activity

City Distance Mag. Time & Date
Minimum magnitude displayed is 2.5.

Coastal Water Temperatures

Place Temperature

Stations

Nearby Weather Stations

Station Location Temp. Windchill Dew Point Humidity Wind Precip. Elev Updated Type
                   

Watches & Warnings

Flash Flood Watch
Issued: 1:46 PM EDT Jul. 27, 2017 – National Weather Service

... Flash Flood Watch in effect from Friday afternoon through
Saturday afternoon...

The National Weather Service in State College has issued a

* Flash Flood Watch for a portion of central Pennsylvania,
including the following areas, Adams, Bedford, Blair, Cambria,
Cumberland, Dauphin, Franklin, Fulton, Huntingdon, Juniata,
Lancaster, Lebanon, Mifflin, Perry, Somerset, and York.

* From Friday afternoon through Saturday afternoon

* heavy rainfall of two to three inches with local amounts of
over four inches is possible, especially in higher terrains.
Areas that received the heavy rainfall last weekend are most
susceptible to flooding.

Precautionary/preparedness actions...

Review flood safety and preparedness information at
weather.Gov/flood.


CR